sensor_id;sensor_type;location;lat;lon;timestamp;pressure;altitude;pressure_sealevel;temperature;humidity
55301;BME280;58302;51.446;-2.000;2023-05-24T00:01:40;101781.28;;;8.11;100.00
55301;BME280;58302;51.446;-2.000;2023-05-24T00:04:08;101784.84;;;8.05;100.00
55301;BME280;58302;51.446;-2.000;2023-05-24T00:06:35;101780.91;;;8.01;100.00
55301;BME280;58302;51.446;-2.000;2023-05-24T00:09:04;101779.69;;;7.97;100.00
55301;BME280;58302;51.446;-2.000;2023-05-24T00:11:30;101783.88;;;7.93;100.00
55301;BME280;58302;51.446;-2.000;2023-05-24T00:13:56;101777.41;;;7.94;100.00
55301;BME280;58302;51.446;-2.000;2023-05-24T00:16:22;101789.09;;;7.88;100.00
55301;BME280;58302;51.446;-2.000;2023-05-24T00:18:49;101790.78;;;7.82;100.00
55301;BME280;58302;51.446;-2.000;2023-05-24T00:21:15;101793.91;;;7.86;100.00
55301;BME280;58302;51.446;-2.000;2023-05-24T00:23:41;101797.03;;;7.83;100.00
55301;BME280;58302;51.446;-2.000;2023-05-24T00:26:08;101791.66;;;7.76;100.00
55301;BME280;58302;51.446;-2.000;2023-05-24T00:28:34;101802.50;;;7.70;100.00
55301;BME280;58302;51.446;-2.000;2023-05-24T00:31:00;101807.31;;;7.61;100.00
55301;BME280;58302;51.446;-2.000;2023-05-24T00:33:27;101801.28;;;7.52;100.00
55301;BME280;58302;51.446;-2.000;2023-05-24T00:35:53;101789.03;;;7.43;100.00
55301;BME280;58302;51.446;-2.000;2023-05-24T00:38:25;101790.09;;;7.42;100.00
55301;BME280;58302;51.446;-2.000;2023-05-24T00:40:52;101788.81;;;7.45;100.00
55301;BME280;58302;51.446;-2.000;2023-05-24T00:43:21;101790.69;;;7.44;100.00
55301;BME280;58302;51.446;-2.000;2023-05-24T00:45:47;101790.09;;;7.42;100.00
55301;BME280;58302;51.446;-2.000;2023-05-24T00:48:13;101796.72;;;7.46;100.00
55301;BME280;58302;51.446;-2.000;2023-05-24T00:50:39;101785.28;;;7.44;100.00
55301;BME280;58302;51.446;-2.000;2023-05-24T00:53:06;101786.75;;;7.33;100.00
55301;BME280;58302;51.446;-2.000;2023-05-24T00:55:34;101780.53;;;7.26;100.00
55301;BME280;58302;51.446;-2.000;2023-05-24T00:58:01;101784.09;;;7.20;100.00
55301;BME280;58302;51.446;-2.000;2023-05-24T01:00:28;101787.19;;;7.17;100.00
55301;BME280;58302;51.446;-2.000;2023-05-24T01:02:54;101788.47;;;7.15;100.00
55301;BME280;58302;51.446;-2.000;2023-05-24T01:05:20;101795.94;;;7.12;100.00
55301;BME280;58302;51.446;-2.000;2023-05-24T01:15:51;101794.28;;;6.92;100.00
55301;BME280;58302;51.446;-2.000;2023-05-24T01:18:54;101787.00;;;6.85;100.00
55301;BME280;58302;51.446;-2.000;2023-05-24T01:27:20;101782.63;;;6.65;100.00
55301;BME280;58302;51.446;-2.000;2023-05-24T01:29:47;101791.59;;;6.65;100.00
55301;BME280;58302;51.446;-2.000;2023-05-24T01:32:18;101790.94;;;6.63;100.00
55301;BME280;58302;51.446;-2.000;2023-05-24T01:34:44;101788.63;;;6.53;100.00
55301;BME280;58302;51.446;-2.000;2023-05-24T01:37:10;101788.44;;;6.48;100.00
55301;BME280;58302;51.446;-2.000;2023-05-24T01:39:36;101788.84;;;6.45;100.00
55301;BME280;58302;51.446;-2.000;2023-05-24T01:44:59;101785.53;;;6.43;100.00
55301;BME280;58302;51.446;-2.000;2023-05-24T01:50:31;101791.72;;;6.30;100.00
55301;BME280;58302;51.446;-2.000;2023-05-24T01:53:03;101785.25;;;6.25;100.00
55301;BME280;58302;51.446;-2.000;2023-05-24T01:55:32;101786.69;;;6.21;100.00
55301;BME280;58302;51.446;-2.000;2023-05-24T01:58:02;101777.16;;;6.18;100.00
55301;BME280;58302;51.446;-2.000;2023-05-24T02:00:28;101790.03;;;6.16;100.00
55301;BME280;58302;51.446;-2.000;2023-05-24T02:02:56;101784.63;;;6.23;100.00
55301;BME280;58302;51.446;-2.000;2023-05-24T02:05:22;101786.72;;;6.27;100.00
55301;BME280;58302;51.446;-2.000;2023-05-24T02:07:48;101785.69;;;6.22;100.00
55301;BME280;58302;51.446;-2.000;2023-05-24T02:10:14;101787.13;;;6.18;100.00
55301;BME280;58302;51.446;-2.000;2023-05-24T02:12:40;101795.41;;;6.16;100.00
55301;BME280;58302;51.446;-2.000;2023-05-24T02:15:07;101797.47;;;6.14;100.00
55301;BME280;58302;51.446;-2.000;2023-05-24T02:17:33;101796.25;;;6.10;100.00
55301;BME280;58302;51.446;-2.000;2023-05-24T02:20:00;101795.78;;;6.06;100.00
55301;BME280;58302;51.446;-2.000;2023-05-24T02:22:26;101783.72;;;6.02;100.00
55301;BME280;58302;51.446;-2.000;2023-05-24T02:24:53;101786.03;;;5.99;100.00
55301;BME280;58302;51.446;-2.000;2023-05-24T02:27:19;101786.22;;;5.97;100.00
55301;BME280;58302;51.446;-2.000;2023-05-24T02:29:45;101792.63;;;5.96;100.00
55301;BME280;58302;51.446;-2.000;2023-05-24T02:32:12;101796.38;;;5.95;100.00
55301;BME280;58302;51.446;-2.000;2023-05-24T02:34:38;101792.41;;;5.91;100.00
55301;BME280;58302;51.446;-2.000;2023-05-24T02:37:04;101793.25;;;5.92;100.00
55301;BME280;58302;51.446;-2.000;2023-05-24T02:39:30;101799.06;;;5.95;100.00
55301;BME280;58302;51.446;-2.000;2023-05-24T02:41:56;101808.03;;;6.02;100.00
55301;BME280;58302;51.446;-2.000;2023-05-24T02:44:22;101806.97;;;6.03;100.00
55301;BME280;58302;51.446;-2.000;2023-05-24T02:46:48;101812.19;;;6.05;100.00
55301;BME280;58302;51.446;-2.000;2023-05-24T02:49:14;101802.22;;;6.05;100.00
55301;BME280;58302;51.446;-2.000;2023-05-24T02:51:40;101802.41;;;6.04;100.00
55301;BME280;58302;51.446;-2.000;2023-05-24T02:54:06;101805.31;;;6.02;100.00
55301;BME280;58302;51.446;-2.000;2023-05-24T02:56:32;101794.53;;;6.02;100.00
55301;BME280;58302;51.446;-2.000;2023-05-24T02:58:59;101797.00;;;5.97;100.00
55301;BME280;58302;51.446;-2.000;2023-05-24T03:01:25;101801.97;;;5.94;100.00
55301;BME280;58302;51.446;-2.000;2023-05-24T03:03:51;101798.44;;;5.93;100.00
55301;BME280;58302;51.446;-2.000;2023-05-24T03:06:17;101798.44;;;5.93;100.00
55301;BME280;58302;51.446;-2.000;2023-05-24T03:08:42;101798.63;;;5.92;100.00
55301;BME280;58302;51.446;-2.000;2023-05-24T03:11:09;101796.38;;;5.95;100.00
55301;BME280;58302;51.446;-2.000;2023-05-24T03:13:35;101799.53;;;5.99;100.00
55301;BME280;58302;51.446;-2.000;2023-05-24T03:16:01;101802.41;;;5.97;100.00
55301;BME280;58302;51.446;-2.000;2023-05-24T03:18:26;101800.72;;;5.96;100.00
55301;BME280;58302;51.446;-2.000;2023-05-24T03:20:52;101805.25;;;5.89;100.00
55301;BME280;58302;51.446;-2.000;2023-05-24T03:23:18;101800.66;;;5.83;100.00
55301;BME280;58302;51.446;-2.000;2023-05-24T03:25:44;101796.25;;;5.75;100.00
55301;BME280;58302;51.446;-2.000;2023-05-24T03:28:10;101799.38;;;5.72;100.00
55301;BME280;58302;51.446;-2.000;2023-05-24T03:30:39;101802.09;;;5.86;100.00
55301;BME280;58302;51.446;-2.000;2023-05-24T03:33:05;101803.66;;;6.01;100.00
55301;BME280;58302;51.446;-2.000;2023-05-24T03:35:31;101805.75;;;6.06;100.00
55301;BME280;58302;51.446;-2.000;2023-05-24T03:37:57;101810.94;;;6.01;100.00
55301;BME280;58302;51.446;-2.000;2023-05-24T03:40:23;101808.69;;;6.04;100.00
55301;BME280;58302;51.446;-2.000;2023-05-24T03:42:50;101800.41;;;6.19;100.00
55301;BME280;58302;51.446;-2.000;2023-05-24T03:45:16;101807.91;;;6.30;100.00
55301;BME280;58302;51.446;-2.000;2023-05-24T03:47:42;101813.94;;;6.32;100.00
55301;BME280;58302;51.446;-2.000;2023-05-24T03:50:08;101808.78;;;6.38;100.00
55301;BME280;58302;51.446;-2.000;2023-05-24T03:52:34;101811.66;;;6.36;100.00
55301;BME280;58302;51.446;-2.000;2023-05-24T03:55:00;101807.72;;;6.32;100.00
55301;BME280;58302;51.446;-2.000;2023-05-24T03:57:26;101809.53;;;6.18;100.00
55301;BME280;58302;51.446;-2.000;2023-05-24T03:59:52;101817.19;;;6.08;100.00
55301;BME280;58302;51.446;-2.000;2023-05-24T04:02:18;101817.97;;;5.95;100.00
55301;BME280;58302;51.446;-2.000;2023-05-24T04:04:44;101814.16;;;5.83;100.00
55301;BME280;58302;51.446;-2.000;2023-05-24T04:07:10;101812.84;;;5.72;100.00
55301;BME280;58302;51.446;-2.000;2023-05-24T04:09:36;101813.66;;;5.66;100.00
55301;BME280;58302;51.446;-2.000;2023-05-24T04:12:05;101815.69;;;5.64;100.00
55301;BME280;58302;51.446;-2.000;2023-05-24T04:14:31;101813.00;;;5.64;100.00
55301;BME280;58302;51.446;-2.000;2023-05-24T04:16:57;101810.09;;;5.66;100.00
55301;BME280;58302;51.446;-2.000;2023-05-24T04:19:23;101814.47;;;5.67;100.00
55301;BME280;58302;51.446;-2.000;2023-05-24T04:21:49;101808.88;;;5.68;100.00
55301;BME280;58302;51.446;-2.000;2023-05-24T04:24:15;101810.97;;;5.73;100.00
55301;BME280;58302;51.446;-2.000;2023-05-24T04:26:41;101805.75;;;5.71;100.00
55301;BME280;58302;51.446;-2.000;2023-05-24T04:29:07;101803.28;;;5.70;100.00
55301;BME280;58302;51.446;-2.000;2023-05-24T04:31:33;101809.72;;;5.69;100.00
55301;BME280;58302;51.446;-2.000;2023-05-24T04:33:59;101805.34;;;5.68;100.00
55301;BME280;58302;51.446;-2.000;2023-05-24T04:36:25;101807.00;;;5.69;100.00
55301;BME280;58302;51.446;-2.000;2023-05-24T04:38:51;101806.81;;;5.70;100.00
55301;BME280;58302;51.446;-2.000;2023-05-24T04:41:20;101808.69;;;5.76;100.00
55301;BME280;58302;51.446;-2.000;2023-05-24T04:43:47;101811.00;;;5.79;100.00
55301;BME280;58302;51.446;-2.000;2023-05-24T04:46:13;101805.03;;;5.84;100.00
55301;BME280;58302;51.446;-2.000;2023-05-24T04:48:38;101806.91;;;5.90;100.00
55301;BME280;58302;51.446;-2.000;2023-05-24T04:51:05;101814.03;;;5.98;100.00
55301;BME280;58302;51.446;-2.000;2023-05-24T04:53:31;101810.94;;;6.01;100.00
55301;BME280;58302;51.446;-2.000;2023-05-24T04:55:57;101800.97;;;6.08;100.00
55301;BME280;58302;51.446;-2.000;2023-05-24T04:58:23;101803.09;;;6.13;100.00
55301;BME280;58302;51.446;-2.000;2023-05-24T05:00:49;101807.66;;;6.19;100.00
55301;BME280;58302;51.446;-2.000;2023-05-24T05:03:15;101806.22;;;6.23;100.00
55301;BME280;58302;51.446;-2.000;2023-05-24T05:05:41;101804.16;;;6.25;100.00
55301;BME280;58302;51.446;-2.000;2023-05-24T05:08:07;101803.97;;;6.26;100.00
55301;BME280;58302;51.446;-2.000;2023-05-24T05:10:34;101806.88;;;6.31;100.00
55301;BME280;58302;51.446;-2.000;2023-05-24T05:13:00;101804.19;;;6.38;100.00
55301;BME280;58302;51.446;-2.000;2023-05-24T05:15:26;101807.34;;;6.48;100.00
55301;BME280;58302;51.446;-2.000;2023-05-24T05:17:52;101797.16;;;6.57;100.00
55301;BME280;58302;51.446;-2.000;2023-05-24T05:20:18;101805.50;;;6.69;100.00
55301;BME280;58302;51.446;-2.000;2023-05-24T05:22:47;101805.69;;;6.80;100.00
55301;BME280;58302;51.446;-2.000;2023-05-24T05:25:14;101806.34;;;6.89;100.00
55301;BME280;58302;51.446;-2.000;2023-05-24T05:27:40;101800.31;;;7.00;100.00
55301;BME280;58302;51.446;-2.000;2023-05-24T05:30:06;101805.31;;;7.10;100.00
55301;BME280;58302;51.446;-2.000;2023-05-24T05:32:33;101816.31;;;7.22;100.00
55301;BME280;58302;51.446;-2.000;2023-05-24T05:34:59;101812.16;;;7.32;100.00
55301;BME280;58302;51.446;-2.000;2023-05-24T05:37:24;101814.00;;;7.45;100.00
55301;BME280;58302;51.446;-2.000;2023-05-24T05:39:50;101813.75;;;7.60;100.00
55301;BME280;58302;51.446;-2.000;2023-05-24T05:42:16;101812.47;;;7.69;100.00
55301;BME280;58302;51.446;-2.000;2023-05-24T05:44:42;101808.28;;;7.80;100.00
55301;BME280;58302;51.446;-2.000;2023-05-24T05:47:08;101804.72;;;7.86;100.00
55301;BME280;58302;51.446;-2.000;2023-05-24T05:49:34;101813.66;;;7.93;100.00
55301;BME280;58302;51.446;-2.000;2023-05-24T05:52:02;101814.03;;;8.03;100.00
55301;BME280;58302;51.446;-2.000;2023-05-24T05:54:28;101813.97;;;8.16;100.00
55301;BME280;58302;51.446;-2.000;2023-05-24T05:56:54;101814.06;;;8.35;100.00
55301;BME280;58302;51.446;-2.000;2023-05-24T05:59:20;101815.28;;;8.52;100.00
55301;BME280;58302;51.446;-2.000;2023-05-24T06:01:46;101819.31;;;8.68;100.00
55301;BME280;58302;51.446;-2.000;2023-05-24T06:04:14;101816.06;;;8.84;100.00
55301;BME280;58302;51.446;-2.000;2023-05-24T06:06:40;101815.31;;;9.02;100.00
55301;BME280;58302;51.446;-2.000;2023-05-24T06:09:06;101816.03;;;9.16;100.00
55301;BME280;58302;51.446;-2.000;2023-05-24T06:11:32;101816.34;;;9.26;100.00
55301;BME280;58302;51.446;-2.000;2023-05-24T06:13:58;101813.13;;;9.36;100.00
55301;BME280;58302;51.446;-2.000;2023-05-24T06:16:24;101817.44;;;9.43;100.00
55301;BME280;58302;51.446;-2.000;2023-05-24T06:18:51;101818.00;;;9.52;100.00
55301;BME280;58302;51.446;-2.000;2023-05-24T06:21:16;101822.81;;;9.68;100.00
55301;BME280;58302;51.446;-2.000;2023-05-24T06:23:42;101824.03;;;9.91;100.00
55301;BME280;58302;51.446;-2.000;2023-05-24T06:26:09;101829.97;;;10.18;100.00
55301;BME280;58302;51.446;-2.000;2023-05-24T06:28:35;101825.19;;;10.50;100.00
55301;BME280;58302;51.446;-2.000;2023-05-24T06:31:04;101834.25;;;10.86;100.00
55301;BME280;58302;51.446;-2.000;2023-05-24T06:33:30;101834.34;;;11.21;100.00
55301;BME280;58302;51.446;-2.000;2023-05-24T06:35:59;101834.31;;;11.56;100.00
55301;BME280;58302;51.446;-2.000;2023-05-24T06:38:26;101828.50;;;12.28;100.00
55301;BME280;58302;51.446;-2.000;2023-05-24T06:40:52;101808.78;;;13.16;100.00
55301;BME280;58302;51.446;-2.000;2023-05-24T06:43:19;101804.91;;;13.85;100.00
55301;BME280;58302;51.446;-2.000;2023-05-24T06:45:45;101775.41;;;14.36;100.00
55301;BME280;58302;51.446;-2.000;2023-05-24T06:48:11;101740.00;;;14.24;100.00
55301;BME280;58302;51.446;-2.000;2023-05-24T06:50:37;101719.78;;;14.25;100.00
55301;BME280;58302;51.446;-2.000;2023-05-24T06:53:03;101728.41;;;14.44;100.00
55301;BME280;58302;51.446;-2.000;2023-05-24T06:55:29;101736.84;;;15.01;100.00
55301;BME280;58302;51.446;-2.000;2023-05-24T06:57:55;101754.69;;;15.51;100.00
55301;BME280;58302;51.446;-2.000;2023-05-24T07:00:21;101752.34;;;15.23;100.00
55301;BME280;58302;51.446;-2.000;2023-05-24T07:02:47;101754.06;;;14.97;100.00
55301;BME280;58302;51.446;-2.000;2023-05-24T07:05:13;101759.25;;;14.61;100.00
55301;BME280;58302;51.446;-2.000;2023-05-24T07:07:40;101761.88;;;14.24;100.00
55301;BME280;58302;51.446;-2.000;2023-05-24T07:10:07;101762.19;;;14.55;100.00
55301;BME280;58302;51.446;-2.000;2023-05-24T07:12:35;101761.16;;;14.61;100.00
55301;BME280;58302;51.446;-2.000;2023-05-24T07:15:02;101765.34;;;14.41;100.00
55301;BME280;58302;51.446;-2.000;2023-05-24T07:17:28;101770.63;;;14.80;100.00
55301;BME280;58302;51.446;-2.000;2023-05-24T07:19:54;101767.09;;;15.64;100.00
55301;BME280;58302;51.446;-2.000;2023-05-24T07:22:21;101772.91;;;15.73;100.00
55301;BME280;58302;51.446;-2.000;2023-05-24T07:24:49;101775.31;;;16.32;100.00
55301;BME280;58302;51.446;-2.000;2023-05-24T07:27:14;101767.69;;;17.05;100.00
55301;BME280;58302;51.446;-2.000;2023-05-24T07:29:40;101772.31;;;17.25;100.00
55301;BME280;58302;51.446;-2.000;2023-05-24T07:32:06;101768.28;;;17.93;100.00
55301;BME280;58302;51.446;-2.000;2023-05-24T07:34:32;101766.72;;;17.56;100.00
55301;BME280;58302;51.446;-2.000;2023-05-24T07:37:00;101764.66;;;16.86;100.00
55301;BME280;58302;51.446;-2.000;2023-05-24T07:39:26;101767.13;;;16.98;100.00
55301;BME280;58302;51.446;-2.000;2023-05-24T07:41:53;101762.19;;;16.85;100.00
55301;BME280;58302;51.446;-2.000;2023-05-24T07:44:19;101772.34;;;17.15;100.00
55301;BME280;58302;51.446;-2.000;2023-05-24T07:46:45;101767.53;;;17.67;100.00
55301;BME280;58302;51.446;-2.000;2023-05-24T07:49:11;101766.94;;;17.85;100.00
55301;BME280;58302;51.446;-2.000;2023-05-24T07:51:37;101767.09;;;17.24;100.00
55301;BME280;58302;51.446;-2.000;2023-05-24T07:54:04;101771.38;;;17.65;100.00
55301;BME280;58302;51.446;-2.000;2023-05-24T07:56:30;101766.44;;;17.73;100.00
55301;BME280;58302;51.446;-2.000;2023-05-24T07:58:57;101761.97;;;17.87;100.00
55301;BME280;58302;51.446;-2.000;2023-05-24T08:01:33;101770.38;;;18.11;100.00
55301;BME280;58302;51.446;-2.000;2023-05-24T08:04:00;101766.56;;;18.02;100.00
55301;BME280;58302;51.446;-2.000;2023-05-24T08:06:31;101757.81;;;18.39;100.00
55301;BME280;58302;51.446;-2.000;2023-05-24T08:09:04;101765.84;;;17.86;100.00
55301;BME280;58302;51.446;-2.000;2023-05-24T08:11:30;101755.59;;;18.46;100.00
55301;BME280;58302;51.446;-2.000;2023-05-24T08:13:56;101756.47;;;18.36;100.00
55301;BME280;58302;51.446;-2.000;2023-05-24T08:16:22;101755.41;;;17.78;100.00
55301;BME280;58302;51.446;-2.000;2023-05-24T08:18:48;101752.63;;;17.88;100.00
55301;BME280;58302;51.446;-2.000;2023-05-24T08:21:14;101752.69;;;18.61;100.00
55301;BME280;58302;51.446;-2.000;2023-05-24T08:23:41;101756.97;;;18.83;100.00
55301;BME280;58302;51.446;-2.000;2023-05-24T08:26:07;101753.81;;;18.60;100.00
55301;BME280;58302;51.446;-2.000;2023-05-24T08:28:33;101751.84;;;18.71;100.00
55301;BME280;58302;51.446;-2.000;2023-05-24T08:31:00;101760.97;;;18.61;100.00
55301;BME280;58302;51.446;-2.000;2023-05-24T08:33:26;101766.44;;;18.66;100.00
55301;BME280;58302;51.446;-2.000;2023-05-24T08:35:53;101761.91;;;18.86;100.00
55301;BME280;58302;51.446;-2.000;2023-05-24T08:38:19;101761.06;;;18.02;100.00
55301;BME280;58302;51.446;-2.000;2023-05-24T08:40:46;101757.63;;;17.71;100.00
55301;BME280;58302;51.446;-2.000;2023-05-24T08:43:13;101756.91;;;17.34;100.00
55301;BME280;58302;51.446;-2.000;2023-05-24T08:45:39;101753.09;;;18.00;100.00
55301;BME280;58302;51.446;-2.000;2023-05-24T08:48:06;101745.00;;;18.63;100.00
55301;BME280;58302;51.446;-2.000;2023-05-24T08:50:32;101749.91;;;18.66;100.00
55301;BME280;58302;51.446;-2.000;2023-05-24T08:52:59;101752.31;;;17.89;100.00
55301;BME280;58302;51.446;-2.000;2023-05-24T08:55:28;101745.84;;;18.20;100.00
55301;BME280;58302;51.446;-2.000;2023-05-24T08:57:56;101756.06;;;18.53;100.00
55301;BME280;58302;51.446;-2.000;2023-05-24T09:00:23;101754.97;;;19.46;100.00
55301;BME280;58302;51.446;-2.000;2023-05-24T09:02:49;101755.41;;;20.02;100.00
55301;BME280;58302;51.446;-2.000;2023-05-24T09:05:15;101741.84;;;19.09;100.00
55301;BME280;58302;51.446;-2.000;2023-05-24T09:07:47;101742.00;;;19.23;100.00
55301;BME280;58302;51.446;-2.000;2023-05-24T09:10:14;101729.25;;;19.27;100.00
55301;BME280;58302;51.446;-2.000;2023-05-24T09:12:47;101732.81;;;19.28;100.00
55301;BME280;58302;51.446;-2.000;2023-05-24T09:15:16;101737.97;;;19.63;100.00
55301;BME280;58302;51.446;-2.000;2023-05-24T09:17:42;101738.88;;;19.54;100.00
55301;BME280;58302;51.446;-2.000;2023-05-24T09:20:09;101730.41;;;19.93;100.00
55301;BME280;58302;51.446;-2.000;2023-05-24T09:22:36;101728.72;;;19.49;100.00
55301;BME280;58302;51.446;-2.000;2023-05-24T09:25:05;101723.69;;;19.32;100.00
55301;BME280;58302;51.446;-2.000;2023-05-24T09:27:32;101722.31;;;19.78;100.00
55301;BME280;58302;51.446;-2.000;2023-05-24T09:29:59;101716.34;;;19.46;100.00
55301;BME280;58302;51.446;-2.000;2023-05-24T09:32:26;101723.38;;;19.34;100.00
55301;BME280;58302;51.446;-2.000;2023-05-24T09:34:56;101727.69;;;18.92;100.00
55301;BME280;58302;51.446;-2.000;2023-05-24T09:37:24;101727.97;;;19.19;100.00
55301;BME280;58302;51.446;-2.000;2023-05-24T09:39:52;101733.44;;;18.95;100.00
55301;BME280;58302;51.446;-2.000;2023-05-24T09:42:20;101735.94;;;18.92;100.00
55301;BME280;58302;51.446;-2.000;2023-05-24T09:44:58;101719.94;;;18.60;100.00
55301;BME280;58302;51.446;-2.000;2023-05-24T09:47:28;101724.63;;;18.93;100.00
55301;BME280;58302;51.446;-2.000;2023-05-24T09:49:54;101716.00;;;19.29;100.00
55301;BME280;58302;51.446;-2.000;2023-05-24T09:52:21;101717.75;;;19.44;100.00
55301;BME280;58302;51.446;-2.000;2023-05-24T09:54:47;101715.75;;;19.49;100.00
55301;BME280;58302;51.446;-2.000;2023-05-24T09:57:16;101711.09;;;20.12;100.00
55301;BME280;58302;51.446;-2.000;2023-05-24T09:59:42;101710.09;;;20.21;100.00
55301;BME280;58302;51.446;-2.000;2023-05-24T10:02:10;101705.59;;;20.63;100.00
55301;BME280;58302;51.446;-2.000;2023-05-24T10:04:40;101693.81;;;21.04;100.00
55301;BME280;58302;51.446;-2.000;2023-05-24T10:07:06;101698.78;;;21.35;100.00
55301;BME280;58302;51.446;-2.000;2023-05-24T10:09:34;101694.22;;;21.80;100.00
55301;BME280;58302;51.446;-2.000;2023-05-24T10:12:04;101695.84;;;22.31;100.00
55301;BME280;58302;51.446;-2.000;2023-05-24T10:14:32;101690.59;;;22.29;100.00
55301;BME280;58302;51.446;-2.000;2023-05-24T10:17:00;101686.28;;;22.15;100.00
55301;BME280;58302;51.446;-2.000;2023-05-24T10:19:25;101685.75;;;22.35;100.00
55301;BME280;58302;51.446;-2.000;2023-05-24T10:21:52;101689.09;;;22.46;100.00
55301;BME280;58302;51.446;-2.000;2023-05-24T10:24:23;101694.38;;;21.97;100.00
55301;BME280;58302;51.446;-2.000;2023-05-24T10:26:51;101701.63;;;21.71;100.00
55301;BME280;58302;51.446;-2.000;2023-05-24T10:29:33;101694.44;;;21.83;100.00
55301;BME280;58302;51.446;-2.000;2023-05-24T10:32:08;101688.50;;;21.63;100.00
55301;BME280;58302;51.446;-2.000;2023-05-24T10:34:34;101688.09;;;21.28;100.00
55301;BME280;58302;51.446;-2.000;2023-05-24T10:37:01;101678.75;;;20.96;100.00
55301;BME280;58302;51.446;-2.000;2023-05-24T10:39:27;101681.84;;;20.95;100.00
55301;BME280;58302;51.446;-2.000;2023-05-24T10:42:01;101678.41;;;21.44;100.00
55301;BME280;58302;51.446;-2.000;2023-05-24T10:44:28;101682.22;;;21.84;100.00
55301;BME280;58302;51.446;-2.000;2023-05-24T10:47:11;101676.19;;;22.41;100.00
55301;BME280;58302;51.446;-2.000;2023-05-24T10:49:48;101678.31;;;22.67;100.00
55301;BME280;58302;51.446;-2.000;2023-05-24T10:52:16;101681.19;;;22.53;100.00
55301;BME280;58302;51.446;-2.000;2023-05-24T10:55:09;101689.03;;;22.15;100.00
55301;BME280;58302;51.446;-2.000;2023-05-24T10:57:36;101689.78;;;22.29;100.00
55301;BME280;58302;51.446;-2.000;2023-05-24T11:02:50;101689.81;;;21.79;100.00
55301;BME280;58302;51.446;-2.000;2023-05-24T11:05:23;101689.91;;;21.88;100.00
55301;BME280;58302;51.446;-2.000;2023-05-24T11:07:57;101689.47;;;21.94;100.00
55301;BME280;58302;51.446;-2.000;2023-05-24T11:10:29;101685.50;;;22.23;100.00
55301;BME280;58302;51.446;-2.000;2023-05-24T11:15:22;101681.31;;;22.48;100.00
55301;BME280;58302;51.446;-2.000;2023-05-24T11:18:12;101687.28;;;21.69;100.00
55301;BME280;58302;51.446;-2.000;2023-05-24T11:20:43;101688.94;;;21.56;100.00
55301;BME280;58302;51.446;-2.000;2023-05-24T11:23:13;101686.88;;;21.62;100.00
55301;BME280;58302;51.446;-2.000;2023-05-24T11:25:40;101689.75;;;21.56;100.00
55301;BME280;58302;51.446;-2.000;2023-05-24T11:28:10;101683.19;;;21.66;100.00
55301;BME280;58302;51.446;-2.000;2023-05-24T11:30:43;101688.41;;;22.18;100.00
55301;BME280;58302;51.446;-2.000;2023-05-24T11:33:20;101682.00;;;22.31;100.00
55301;BME280;58302;51.446;-2.000;2023-05-24T11:35:53;101687.72;;;22.34;100.00
55301;BME280;58302;51.446;-2.000;2023-05-24T11:38:20;101688.38;;;22.31;100.00
55301;BME280;58302;51.446;-2.000;2023-05-24T11:40:48;101684.94;;;22.34;100.00
55301;BME280;58302;51.446;-2.000;2023-05-24T11:43:17;101680.31;;;22.44;100.00
55301;BME280;58302;51.446;-2.000;2023-05-24T11:45:46;101678.19;;;21.91;100.00
55301;BME280;58302;51.446;-2.000;2023-05-24T11:48:14;101683.31;;;22.11;100.00
55301;BME280;58302;51.446;-2.000;2023-05-24T11:50:41;101676.72;;;22.07;100.00
55301;BME280;58302;51.446;-2.000;2023-05-24T11:53:18;101674.13;;;22.24;100.00
55301;BME280;58302;51.446;-2.000;2023-05-24T11:55:45;101676.75;;;22.52;100.00
55301;BME280;58302;51.446;-2.000;2023-05-24T11:58:37;101662.78;;;22.57;100.00
55301;BME280;58302;51.446;-2.000;2023-05-24T12:01:03;101670.09;;;22.30;100.00
55301;BME280;58302;51.446;-2.000;2023-05-24T12:03:29;101665.16;;;22.72;100.00
55301;BME280;58302;51.446;-2.000;2023-05-24T12:05:56;101670.47;;;22.38;100.00
55301;BME280;58302;51.446;-2.000;2023-05-24T12:08:22;101667.84;;;22.32;100.00
55301;BME280;58302;51.446;-2.000;2023-05-24T12:10:48;101669.72;;;22.46;100.00
55301;BME280;58302;51.446;-2.000;2023-05-24T12:13:21;101665.50;;;21.90;100.00
55301;BME280;58302;51.446;-2.000;2023-05-24T12:15:57;101657.19;;;22.48;100.00
55301;BME280;58302;51.446;-2.000;2023-05-24T12:18:24;101654.53;;;22.66;100.00
55301;BME280;58302;51.446;-2.000;2023-05-24T12:20:51;101655.88;;;22.77;98.16
55301;BME280;58302;51.446;-2.000;2023-05-24T12:23:24;101661.75;;;22.75;94.66
55301;BME280;58302;51.446;-2.000;2023-05-24T12:25:58;101658.94;;;21.86;100.00
55301;BME280;58302;51.446;-2.000;2023-05-24T12:28:31;101644.25;;;22.66;100.00
55301;BME280;58302;51.446;-2.000;2023-05-24T12:31:01;101646.66;;;23.30;90.80
55301;BME280;58302;51.446;-2.000;2023-05-24T12:33:27;101650.38;;;22.85;96.83
55301;BME280;58302;51.446;-2.000;2023-05-24T12:35:53;101654.50;;;22.88;99.08
55301;BME280;58302;51.446;-2.000;2023-05-24T12:38:23;101657.69;;;23.12;97.12
55301;BME280;58302;51.446;-2.000;2023-05-24T12:40:53;101648.00;;;23.50;94.85
55301;BME280;58302;51.446;-2.000;2023-05-24T12:43:19;101646.97;;;23.20;97.75
55301;BME280;58302;51.446;-2.000;2023-05-24T12:45:46;101651.84;;;23.23;97.17
55301;BME280;58302;51.446;-2.000;2023-05-24T12:48:13;101633.22;;;23.72;94.49
55301;BME280;58302;51.446;-2.000;2023-05-24T12:50:39;101632.25;;;23.76;98.14
55301;BME280;58302;51.446;-2.000;2023-05-24T12:53:05;101631.91;;;23.95;96.17
55301;BME280;58302;51.446;-2.000;2023-05-24T12:55:31;101623.25;;;24.40;93.39
55301;BME280;58302;51.446;-2.000;2023-05-24T12:57:57;101630.59;;;24.36;90.00
55301;BME280;58302;51.446;-2.000;2023-05-24T13:00:25;101634.53;;;23.17;97.32
55301;BME280;58302;51.446;-2.000;2023-05-24T13:02:55;101636.91;;;22.93;100.00